Time;durP1;ratioP1;P1;durP2;ratioP2;P2;SDS_P1;SDS_P2;PMS_P1;PMS_P2;Temp;Humidity;BMP_temperature;BMP_pressure;BME280_temperature;BME280_humidity;BME280_pressure;Samples;Min_cycle;Max_cycle;Signal;HPM_P1;HPM_P2
2023/10/24 00:02:02;;;;;;;0.10;0.10;;;;;;;15.84;62.47;101328.88;4997719;28;20028;-89
2023/10/24 00:04:27;;;;;;;0.10;0.10;;;;;;;15.83;61.89;101324.56;5013493;28;20041;-90
2023/10/24 00:06:53;;;;;;;0.10;0.10;;;;;;;15.72;62.55;101323.41;5013770;28;20026;-89
2023/10/24 00:09:18;;;;;;;0.10;0.10;;;;;;;15.74;62.69;101337.25;4997534;28;20034;-90
2023/10/24 00:11:43;;;;;;;0.10;0.10;;;;;;;15.60;62.91;101325.91;4997012;28;20033;-88
2023/10/24 00:14:09;;;;;;;0.10;0.10;;;;;;;15.49;62.66;101310.88;5031584;28;20033;-89
2023/10/24 00:16:34;;;;;;;0.10;0.10;;;;;;;15.47;62.67;101304.91;5031422;28;20494;-89
2023/10/24 00:19:00;;;;;;;0.10;0.10;;;;;;;15.67;62.66;101319.44;5013960;28;20499;-88
2023/10/24 00:21:25;;;;;;;0.10;0.10;;;;;;;15.63;62.62;101313.56;4997598;28;20502;-90
2023/10/24 00:23:52;;;;;;;0.10;0.10;;;;;;;15.62;62.61;101319.69;5013569;28;20423;-88
2023/10/24 00:26:17;;;;;;;0.10;0.10;;;;;;;15.43;62.79;101295.59;5013960;28;20039;-88
2023/10/24 00:28:43;;;;;;;0.20;0.20;;;;;;;15.54;62.89;101313.22;4997160;28;20030;-89
2023/10/24 00:31:08;;;;;;;0.20;0.20;;;;;;;15.27;62.73;101276.56;4997666;28;20446;-89
2023/10/24 00:33:34;;;;;;;0.10;0.10;;;;;;;15.45;63.06;101314.59;5013741;28;20419;-89
2023/10/24 00:35:59;;;;;;;0.10;0.10;;;;;;;15.49;62.96;101316.09;5013642;28;20033;-88
2023/10/24 00:38:25;;;;;;;0.10;0.10;;;;;;;15.28;63.55;101310.34;4997083;28;20091;-90
2023/10/24 00:40:50;;;;;;;0.10;0.10;;;;;;;15.26;63.44;101303.56;5013325;28;20041;-89
2023/10/24 00:43:16;;;;;;;0.10;0.10;;;;;;;15.24;63.67;101302.78;5030723;28;20495;-89
2023/10/24 00:45:41;;;;;;;0.10;0.10;;;;;;;15.31;63.43;101301.50;4996791;28;20037;-88
2023/10/24 00:48:06;;;;;;;0.10;0.10;;;;;;;15.16;63.59;101298.88;4996614;28;20083;-89
2023/10/24 00:50:32;;;;;;;0.10;0.10;;;;;;;15.23;63.15;101303.72;4997375;28;20376;-90
2023/10/24 00:52:58;;;;;;;0.10;0.10;;;;;;;15.31;62.97;101306.72;5013736;28;20033;-89
2023/10/24 00:55:24;;;;;;;0.20;0.20;;;;;;;15.19;63.31;101297.84;4997056;28;20030;-89
2023/10/24 00:57:49;;;;;;;0.10;0.10;;;;;;;15.17;63.16;101295.34;4996904;28;20544;-88
2023/10/24 01:00:15;;;;;;;0.10;0.10;;;;;;;15.18;63.53;101297.00;4997012;28;20032;-90
2023/10/24 01:02:40;;;;;;;0.10;0.10;;;;;;;15.26;62.99;101300.97;4996547;28;20041;-89
2023/10/24 01:05:06;;;;;;;0.10;0.10;;;;;;;15.05;63.63;101296.03;4996590;28;20107;-89
2023/10/24 01:07:32;;;;;;;0.10;0.10;;;;;;;14.97;63.69;101280.00;4996776;28;20075;-88
2023/10/24 01:09:57;;;;;;;0.10;0.10;;;;;;;14.84;64.19;101266.81;4980492;28;20033;-89
2023/10/24 01:12:23;;;;;;;0.10;0.10;;;;;;;15.02;64.23;101291.00;4996473;28;20595;-89
2023/10/24 01:14:48;;;;;;;0.10;0.10;;;;;;;14.93;64.45;101275.88;4996707;28;20064;-89
2023/10/24 01:17:14;;;;;;;0.10;0.10;;;;;;;15.00;64.14;101295.47;4996367;28;20124;-89
2023/10/24 01:19:39;;;;;;;0.10;0.10;;;;;;;14.97;63.85;101282.63;4980331;28;20403;-88
2023/10/24 01:22:05;;;;;;;0.10;0.10;;;;;;;14.99;64.01;101293.78;5012685;28;20482;-89
2023/10/24 01:24:30;;;;;;;0.10;0.10;;;;;;;14.93;64.40;101294.13;4980345;28;20048;-90
2023/10/24 01:26:56;;;;;;;0.10;0.10;;;;;;;14.96;63.99;101290.53;4996631;28;20034;-88
2023/10/24 01:29:21;;;;;;;0.10;0.10;;;;;;;15.03;63.82;101292.66;5012946;28;20037;-90
2023/10/24 01:31:47;;;;;;;0.10;0.10;;;;;;;15.01;63.59;101288.47;4996317;28;20399;-89
2023/10/24 01:34:12;;;;;;;0.10;0.10;;;;;;;14.81;63.57;101276.56;4996592;28;20052;-89
2023/10/24 01:36:38;;;;;;;0.10;0.10;;;;;;;14.75;63.61;101272.56;4996197;28;20044;-89
2023/10/24 01:39:03;;;;;;;0.10;0.10;;;;;;;14.88;63.39;101301.38;5012642;28;20052;-88
2023/10/24 01:41:28;;;;;;;0.10;0.10;;;;;;;14.72;63.75;101272.72;5012552;28;20044;-89
2023/10/24 01:43:55;;;;;;;0.10;0.10;;;;;;;14.82;63.77;101292.13;5029979;28;20487;-89
2023/10/24 01:46:21;;;;;;;0.10;0.10;;;;;;;14.76;63.62;101297.69;5012259;28;20025;-88
2023/10/24 01:48:46;;;;;;;0.10;0.10;;;;;;;14.67;63.82;101294.75;5012900;28;20052;-89
2023/10/24 01:51:12;;;;;;;0.10;0.10;;;;;;;14.70;63.44;101298.00;4980210;28;20037;-89
2023/10/24 01:53:37;;;;;;;0.10;0.10;;;;;;;14.64;63.42;101301.78;5012580;28;20029;-89
2023/10/24 01:56:03;;;;;;;0.10;0.10;;;;;;;14.55;63.83;101291.03;4996280;28;20506;-89
2023/10/24 01:58:28;;;;;;;0.10;0.10;;;;;;;14.52;63.58;101286.84;4996725;28;20047;-89
2023/10/24 02:00:54;;;;;;;0.20;0.20;;;;;;;14.61;63.65;101286.34;5012302;28;20068;-89
2023/10/24 02:03:19;;;;;;;0.10;0.10;;;;;;;14.56;64.01;101283.16;4996146;28;20076;-89
2023/10/24 02:05:45;;;;;;;0.10;0.10;;;;;;;14.67;63.91;101294.75;4996057;28;20049;-88
2023/10/24 02:08:26;;;;;;;0.10;0.10;;;;;;;14.50;63.98;101288.69;4989247;28;20049;-89
2023/10/24 02:10:51;;;;;;;0.10;0.10;;;;;;;14.59;64.21;101297.78;4995717;28;20075;-88
2023/10/24 02:13:17;;;;;;;0.10;0.10;;;;;;;14.49;63.91;101274.00;5012477;28;20045;-88
2023/10/24 02:15:42;;;;;;;0.10;0.10;;;;;;;14.56;64.01;101304.00;5012085;28;20025;-89
2023/10/24 02:18:08;;;;;;;0.10;0.10;;;;;;;14.44;64.38;101294.19;4996133;28;20033;-89
2023/10/24 02:20:33;;;;;;;0.10;0.10;;;;;;;14.50;64.57;101303.47;4979895;28;20392;-88
2023/10/24 02:22:59;;;;;;;0.10;0.10;;;;;;;14.46;65.17;101308.03;4996850;28;20037;-89
2023/10/24 02:25:24;;;;;;;0.10;0.10;;;;;;;14.39;64.95;101279.75;4999358;28;20033;-89
2023/10/24 02:27:50;;;;;;;0.10;0.10;;;;;;;14.34;64.96;101293.00;5016210;28;20041;-88
2023/10/24 02:30:15;;;;;;;0.10;0.10;;;;;;;14.43;65.10;101299.50;5015696;28;20029;-90
2023/10/24 02:32:41;;;;;;;0.10;0.10;;;;;;;14.41;64.95;101294.38;5015688;28;20033;-90
2023/10/24 02:35:06;;;;;;;0.10;0.10;;;;;;;14.18;66.51;101292.19;5016040;28;20029;-90
2023/10/24 02:37:32;;;;;;;0.10;0.10;;;;;;;14.07;66.10;101264.97;4999658;28;20108;-88
2023/10/24 02:39:57;;;;;;;0.17;0.17;;;;;;;14.24;66.03;101294.44;5015721;28;20115;-89
2023/10/24 02:42:23;;;;;;;0.10;0.10;;;;;;;14.33;66.45;101312.16;4983450;28;20099;-90
2023/10/24 02:44:49;;;;;;;0.10;0.10;;;;;;;14.35;65.93;101323.31;4999430;28;20025;-90
2023/10/24 02:47:14;;;;;;;0.10;0.10;;;;;;;14.29;65.90;101290.69;4983168;28;20503;-88
2023/10/24 02:49:40;;;;;;;0.10;0.10;;;;;;;14.56;68.07;101304.00;4982924;28;20029;-87
2023/10/24 02:52:05;;;;;;;0.10;0.10;;;;;;;14.66;65.68;101316.50;4994144;28;20058;-86
2023/10/24 02:54:31;;;;;;;0.10;0.10;;;;;;;14.76;67.35;101309.88;4979214;28;20037;-86
2023/10/24 02:56:56;;;;;;;0.10;0.10;;;;;;;15.10;65.84;101304.44;4979174;28;20025;-86
2023/10/24 02:59:22;;;;;;;0.10;0.10;;;;;;;15.19;64.18;101311.72;5011926;28;20029;-87
2023/10/24 03:01:47;;;;;;;0.20;0.20;;;;;;;14.96;64.20;101298.34;4995672;28;20084;-86
2023/10/24 03:04:12;;;;;;;0.10;0.10;;;;;;;14.84;64.84;101313.69;4962887;28;20527;-86
2023/10/24 03:06:38;;;;;;;0.10;0.10;;;;;;;14.85;65.07;101319.78;4962950;28;20428;-87
2023/10/24 03:09:04;;;;;;;0.10;0.10;;;;;;;14.79;66.53;101317.50;4963001;28;20036;-86
2023/10/24 03:11:29;;;;;;;0.10;0.10;;;;;;;15.00;65.65;101318.06;5011859;28;20040;-87
2023/10/24 03:13:55;;;;;;;0.10;0.10;;;;;;;15.19;64.96;101337.78;5012475;28;20038;-87
2023/10/24 03:16:21;;;;;;;0.20;0.20;;;;;;;15.09;65.06;101333.19;4963144;28;20504;-86
2023/10/24 03:18:46;;;;;;;0.20;0.20;;;;;;;14.92;65.14;101328.91;4995278;28;20038;-86
2023/10/24 03:21:12;;;;;;;0.30;0.30;;;;;;;14.93;65.21;101344.44;4978743;28;20022;-86
2023/10/24 03:23:40;;;;;;;0.10;0.10;;;;;;;14.88;64.37;101348.25;4995080;28;20041;-86
2023/10/24 03:26:06;;;;;;;0.10;0.10;;;;;;;14.84;63.95;101342.34;4995349;28;20026;-86
2023/10/24 03:28:31;;;;;;;0.10;0.10;;;;;;;14.70;64.28;101346.66;4962355;28;20053;-86
2023/10/24 03:31:04;;;;;;;0.10;0.10;;;;;;;14.58;65.32;101345.56;4979113;28;20056;-86
2023/10/24 03:33:31;;;;;;;0.20;0.20;;;;;;;14.99;64.19;101361.53;4989951;28;20034;-87
2023/10/24 03:35:57;;;;;;;0.10;0.10;;;;;;;15.01;63.47;101354.47;4995036;28;20059;-87
2023/10/24 03:38:22;;;;;;;0.10;0.10;;;;;;;14.95;62.50;101348.78;4994982;28;20030;-88
2023/10/24 03:40:49;;;;;;;0.10;0.10;;;;;;;14.72;63.12;101358.66;4993636;28;20491;-88
2023/10/24 03:43:14;;;;;;;0.10;0.10;;;;;;;14.50;63.79;101358.16;4994552;28;20026;-90
2023/10/24 03:45:40;;;;;;;0.10;0.10;;;;;;;14.48;63.68;101363.44;4978418;28;20386;-91
2023/10/24 03:48:05;;;;;;;0.10;0.10;;;;;;;14.39;63.95;101368.28;4978748;28;20030;-90
2023/10/24 03:50:35;;;;;;;0.10;0.10;;;;;;;14.22;64.60;101356.97;4978602;28;20545;-88
2023/10/24 03:53:00;;;;;;;0.10;0.10;;;;;;;14.28;64.44;101366.25;4962121;28;20037;-89
2023/10/24 03:55:26;;;;;;;0.10;0.10;;;;;;;14.09;64.94;101350.75;4978233;28;20424;-88
2023/10/24 03:57:51;;;;;;;0.15;0.15;;;;;;;14.07;65.28;101368.19;4961883;28;20048;-90
2023/10/24 04:00:17;;;;;;;0.10;0.10;;;;;;;14.03;65.52;101372.69;4978213;28;20141;-90
2023/10/24 04:02:42;;;;;;;0.20;0.20;;;;;;;14.13;65.16;101367.88;4978104;28;20026;-89
2023/10/24 04:05:08;;;;;;;0.10;0.10;;;;;;;14.02;65.53;101368.41;4977880;28;20046;-89
2023/10/24 04:07:34;;;;;;;0.10;0.10;;;;;;;13.94;65.82;101367.97;4977567;28;20112;-89
2023/10/24 04:09:59;;;;;;;0.10;0.10;;;;;;;13.86;66.09;101359.72;4970669;28;20122;-91
2023/10/24 04:12:24;;;;;;;0.20;0.20;;;;;;;13.78;66.18;101335.88;4977499;28;20041;-90
2023/10/24 04:14:50;;;;;;;0.10;0.10;;;;;;;13.94;66.28;101352.34;4982713;28;20036;-88
2023/10/24 04:17:15;;;;;;;0.10;0.10;;;;;;;13.65;66.31;101304.44;4997349;28;20553;-89
2023/10/24 04:19:41;;;;;;;0.10;0.10;;;;;;;13.94;66.21;101351.53;4981926;28;20411;-92
2023/10/24 04:22:06;;;;;;;0.20;0.20;;;;;;;13.90;66.76;101358.66;5007725;28;20056;-90
2023/10/24 04:24:32;;;;;;;0.10;0.10;;;;;;;13.75;66.73;101346.41;5011465;28;20087;-86
2023/10/24 04:26:57;;;;;;;0.10;0.10;;;;;;;13.90;66.38;101371.66;4996391;28;20041;-90
2023/10/24 04:29:23;;;;;;;0.10;0.10;;;;;;;13.81;66.60;101356.50;4997513;28;20049;-92
2023/10/24 04:31:49;;;;;;;0.13;0.13;;;;;;;13.89;66.38;101362.16;4982941;28;20029;-92
2023/10/24 04:34:14;;;;;;;0.10;0.10;;;;;;;13.85;66.44;101362.38;5000898;28;20033;-90
2023/10/24 04:36:40;;;;;;;0.10;0.10;;;;;;;13.82;66.68;101353.00;4982299;28;20030;-90
2023/10/24 04:39:06;;;;;;;0.20;0.20;;;;;;;13.74;67.13;101347.34;4999996;28;20495;-87
2023/10/24 04:41:31;;;;;;;0.10;0.10;;;;;;;13.72;67.08;101338.78;5030376;28;20080;-84
2023/10/24 04:43:56;;;;;;;0.10;0.10;;;;;;;13.74;67.41;101349.94;4996518;28;20033;-88
2023/10/24 04:46:22;;;;;;;0.10;0.10;;;;;;;13.68;67.57;101345.06;4996716;28;20087;-90
2023/10/24 04:48:47;;;;;;;0.10;0.10;;;;;;;13.69;67.61;101351.94;5005223;28;20060;-92
2023/10/24 04:51:13;;;;;;;0.10;0.10;;;;;;;13.82;67.37;101360.78;4996791;28;20490;-91
2023/10/24 04:53:39;;;;;;;0.10;0.10;;;;;;;13.87;67.46;101355.38;4997902;28;20033;-90
2023/10/24 04:56:04;;;;;;;0.20;0.20;;;;;;;13.83;67.63;101354.66;5001263;28;20034;-86
2023/10/24 04:58:30;;;;;;;0.10;0.10;;;;;;;13.88;67.38;101357.88;4999467;28;20403;-86
2023/10/24 05:00:56;;;;;;;0.10;0.10;;;;;;;13.79;67.91;101358.34;4996900;28;20034;-88
2023/10/24 05:03:21;;;;;;;0.10;0.10;;;;;;;13.82;67.77;101371.19;5011425;28;20045;-87
2023/10/24 05:05:47;;;;;;;0.20;0.20;;;;;;;13.76;67.67;101369.75;5013610;28;20128;-90
2023/10/24 05:08:12;;;;;;;0.10;0.10;;;;;;;13.71;68.85;101365.69;5029721;28;20033;-86
2023/10/24 05:10:38;;;;;;;0.20;0.20;;;;;;;13.82;68.92;101389.41;4993497;28;20058;-87
2023/10/24 05:13:03;;;;;;;0.10;0.10;;;;;;;13.83;68.94;101380.69;5002121;28;20418;-91
2023/10/24 05:15:29;;;;;;;0.17;0.17;;;;;;;13.82;69.02;101381.59;4995412;28;20029;-89
2023/10/24 05:17:55;;;;;;;0.10;0.10;;;;;;;13.90;69.38;101382.06;4997142;28;20026;-90
2023/10/24 05:20:20;;;;;;;0.20;0.20;;;;;;;13.92;69.73;101380.22;4999692;28;20599;-94
2023/10/24 05:22:46;;;;;;;0.10;0.10;;;;;;;13.96;69.84;101379.16;4994880;28;20045;-89
2023/10/24 05:25:11;;;;;;;0.10;0.10;;;;;;;14.11;69.40;101397.50;5011164;28;20037;-90
2023/10/24 05:27:38;;;;;;;0.10;0.10;;;;;;;14.04;69.71;101392.59;4996201;28;20044;-91
2023/10/24 05:30:04;;;;;;;0.10;0.10;;;;;;;14.10;70.07;101401.00;4982402;28;20038;-92
2023/10/24 05:32:29;;;;;;;0.13;0.13;;;;;;;14.08;70.14;101395.91;4987847;28;20037;-89
2023/10/24 05:34:55;;;;;;;0.20;0.20;;;;;;;14.12;70.03;101399.16;5013299;28;20033;-92
2023/10/24 05:37:21;;;;;;;0.10;0.10;;;;;;;14.00;69.80;101391.06;5019475;28;20037;-89
2023/10/24 05:39:46;;;;;;;0.15;0.15;;;;;;;14.10;70.02;101409.66;5014797;28;20041;-93
2023/10/24 05:42:12;;;;;;;0.10;0.10;;;;;;;14.10;70.04;101401.00;5031186;28;20030;-87
2023/10/24 05:44:37;;;;;;;0.20;0.20;;;;;;;13.99;69.97;101372.94;4995984;28;20401;-90
2023/10/24 05:47:03;;;;;;;0.20;0.20;;;;;;;14.28;70.15;101407.88;4985040;28;20034;-91
2023/10/24 05:49:29;;;;;;;0.20;0.20;;;;;;;14.19;69.89;101387.53;5016795;28;20029;-92
2023/10/24 05:51:55;;;;;;;0.20;0.20;;;;;;;14.38;69.67;101422.09;5027876;28;20421;-92
2023/10/24 05:54:20;;;;;;;0.15;0.15;;;;;;;14.38;69.78;101416.88;4994964;28;20431;-89
2023/10/24 05:56:46;;;;;;;0.10;0.10;;;;;;;14.37;69.05;101409.16;5012275;28;20672;-88
2023/10/24 05:59:11;;;;;;;0.10;0.10;;;;;;;14.47;68.39;101419.03;4999098;28;20044;-84
2023/10/24 06:01:36;;;;;;;0.10;0.10;;;;;;;14.46;68.04;101417.38;5016150;28;20518;-90
2023/10/24 06:04:02;;;;;;;0.10;0.10;;;;;;;14.48;68.00;101425.94;5020712;28;20046;-90
2023/10/24 06:06:27;;;;;;;0.10;0.10;;;;;;;14.53;67.68;101421.31;5010475;28;20025;-89
2023/10/24 06:08:53;;;;;;;0.10;0.10;;;;;;;14.49;67.29;101414.59;5034440;28;20561;-89
2023/10/24 06:11:19;;;;;;;0.10;0.10;;;;;;;14.49;67.82;101419.81;4987865;28;20064;-86
2023/10/24 06:13:44;;;;;;;0.10;0.10;;;;;;;14.61;67.52;101423.50;4998488;28;20052;-85
2023/10/24 06:16:11;;;;;;;0.10;0.10;;;;;;;14.71;67.66;101432.50;5002676;28;20037;-88
2023/10/24 06:18:36;;;;;;;0.10;0.10;;;;;;;14.77;67.96;101426.16;4999446;28;20029;-91
2023/10/24 06:21:05;;;;;;;0.20;0.20;;;;;;;14.90;67.94;101428.00;5028187;28;20029;-87
2023/10/24 06:23:31;;;;;;;0.10;0.10;;;;;;;14.91;67.95;101426.22;4997958;28;20059;-91
2023/10/24 06:25:57;;;;;;;0.10;0.10;;;;;;;14.92;68.67;101420.94;4998634;28;20048;-87
2023/10/24 06:28:23;;;;;;;0.20;0.20;;;;;;;14.90;69.31;101419.34;4999559;28;20033;-87
2023/10/24 06:30:50;;;;;;;0.13;0.13;;;;;;;14.94;69.73;101418.25;5003294;28;20032;-92
2023/10/24 06:33:16;;;;;;;0.13;0.13;;;;;;;14.81;70.20;101412.03;5015088;28;20037;-87
2023/10/24 06:35:41;;;;;;;0.10;0.10;;;;;;;14.76;70.27;101401.88;4983314;28;20525;-86
2023/10/24 06:38:06;;;;;;;0.15;0.15;;;;;;;15.06;70.08;101427.19;5030036;28;20458;-90
2023/10/24 06:40:32;;;;;;;0.20;0.20;;;;;;;14.99;69.71;101411.03;5000248;28;20099;-89
2023/10/24 06:42:58;;;;;;;0.10;0.10;;;;;;;15.10;69.58;101407.84;5009847;28;20042;-89
2023/10/24 06:45:24;;;;;;;0.10;0.10;;;;;;;15.15;69.30;101417.09;5000448;28;20034;-90
2023/10/24 06:47:49;;;;;;;0.10;0.10;;;;;;;15.16;69.11;101392.69;5001269;28;20041;-88
2023/10/24 06:50:15;;;;;;;0.15;0.15;;;;;;;15.29;68.83;101413.69;5000236;28;20079;-91
2023/10/24 06:52:42;;;;;;;0.10;0.10;;;;;;;15.37;68.46;101410.66;5032975;28;20115;-92
2023/10/24 06:55:08;;;;;;;0.10;0.10;;;;;;;15.43;68.04;101410.31;5000241;28;20033;-90
2023/10/24 06:57:33;;;;;;;0.20;0.20;;;;;;;15.40;68.11;101406.13;4991306;28;20040;-89
2023/10/24 06:59:59;;;;;;;0.17;0.17;;;;;;;15.50;67.93;101412.47;5014125;28;20033;-89
2023/10/24 07:02:24;;;;;;;0.10;0.10;;;;;;;15.47;67.64;101404.84;5015557;28;20033;-90
2023/10/24 07:04:50;;;;;;;0.10;0.10;;;;;;;15.36;67.87;101383.75;5009511;28;20058;-86
2023/10/24 07:07:15;;;;;;;0.10;0.10;;;;;;;15.53;67.87;101406.25;5006408;28;20038;-90
2023/10/24 07:09:41;;;;;;;0.10;0.10;;;;;;;15.58;67.52;101408.59;5010709;28;20495;-89
2023/10/24 07:12:06;;;;;;;0.10;0.10;;;;;;;15.47;67.90;101411.81;4979820;28;20042;-85
2023/10/24 07:14:32;;;;;;;0.10;0.10;;;;;;;15.30;68.33;101389.31;5003706;28;20018;-87
2023/10/24 07:16:57;;;;;;;0.20;0.20;;;;;;;15.54;67.70;101407.13;4994561;28;20041;-89
2023/10/24 07:19:23;;;;;;;0.10;0.10;;;;;;;15.37;67.73;101376.78;5010411;28;20496;-88
2023/10/24 07:21:48;;;;;;;0.20;0.20;;;;;;;15.40;69.38;101390.47;5005190;28;20492;-91
2023/10/24 07:24:14;;;;;;;0.10;0.10;;;;;;;15.77;69.15;101425.75;5004526;28;20468;-90
2023/10/24 07:26:39;;;;;;;0.10;0.10;;;;;;;16.01;68.88;101409.56;4994251;28;20061;-92
2023/10/24 07:29:05;;;;;;;0.10;0.10;;;;;;;16.27;68.15;101410.63;4990164;28;20030;-87
2023/10/24 07:31:30;;;;;;;0.10;0.10;;;;;;;16.44;64.63;101409.63;4987192;28;20515;-91
2023/10/24 07:33:56;;;;;;;0.17;0.17;;;;;;;16.55;64.27;101417.66;5008799;28;20468;-90
2023/10/24 07:36:21;;;;;;;0.10;0.10;;;;;;;16.52;64.45;101410.00;4992375;28;20052;-92
2023/10/24 07:38:47;;;;;;;0.15;0.15;;;;;;;16.64;63.81;101411.84;5016392;28;20041;-88
2023/10/24 07:41:12;;;;;;;0.17;0.17;;;;;;;16.67;63.12;101401.22;4973700;28;20112;-92
2023/10/24 07:43:40;;;;;;;0.10;0.10;;;;;;;16.62;63.18;101387.59;4991394;28;20487;-93
2023/10/24 07:46:06;;;;;;;0.10;0.10;;;;;;;16.79;63.47;101395.25;4995278;28;20030;-93
2023/10/24 07:48:31;;;;;;;0.20;0.20;;;;;;;16.87;63.71;101392.16;4994908;28;20056;-90
2023/10/24 07:50:57;;;;;;;0.20;0.20;;;;;;;16.79;63.38;101384.78;4993804;28;20101;-89
2023/10/24 07:53:23;;;;;;;0.10;0.10;;;;;;;16.96;63.28;101375.88;4977173;28;20044;-86
2023/10/24 07:55:49;;;;;;;0.10;0.10;;;;;;;17.01;63.05;101352.06;4990594;28;20025;-92
2023/10/24 07:58:17;;;;;;;0.10;0.10;;;;;;;17.19;62.14;101377.84;5007121;28;20034;-92
2023/10/24 08:00:43;;;;;;;0.20;0.20;;;;;;;17.52;64.98;101388.84;4977933;28;20030;-93
2023/10/24 08:03:11;;;;;;;0.10;0.10;;;;;;;17.59;61.33;101385.72;4994717;28;20030;-89
2023/10/24 08:05:36;;;;;;;0.10;0.10;;;;;;;17.64;61.44;101393.28;4982404;28;20075;-90
2023/10/24 08:08:02;;;;;;;0.10;0.10;;;;;;;17.53;61.14;101387.91;4978531;28;20030;-91
2023/10/24 08:10:28;;;;;;;0.10;0.10;;;;;;;17.46;61.07;101380.47;4983465;28;20058;-93
2023/10/24 08:12:54;;;;;;;0.10;0.10;;;;;;;17.60;60.94;101378.69;4977468;28;20537;-91
2023/10/24 08:15:19;;;;;;;0.15;0.15;;;;;;;17.35;61.13;101377.72;4978539;28;20026;-89
2023/10/24 08:17:45;;;;;;;0.10;0.10;;;;;;;17.54;60.59;101381.75;4979719;28;20065;-89
2023/10/24 08:20:11;;;;;;;0.10;0.10;;;;;;;17.53;58.41;101374.84;5012148;28;20088;-91
2023/10/24 08:22:36;;;;;;;0.10;0.10;;;;;;;17.53;58.30;101380.06;4996569;28;20033;-93
2023/10/24 08:25:01;;;;;;;0.20;0.20;;;;;;;17.57;58.59;101376.28;4998814;28;20091;-90
2023/10/24 08:27:27;;;;;;;0.10;0.10;;;;;;;17.58;58.33;101357.88;4963731;28;20044;-89
2023/10/24 08:29:52;;;;;;;0.20;0.20;;;;;;;17.61;58.50;101341.16;5000694;28;20116;-91
2023/10/24 08:32:18;;;;;;;0.10;0.10;;;;;;;17.90;58.05;101366.22;5009407;28;20026;-88
2023/10/24 08:34:43;;;;;;;0.20;0.20;;;;;;;18.10;57.69;101370.09;4992783;28;20042;-90
2023/10/24 08:37:09;;;;;;;0.10;0.10;;;;;;;18.28;57.07;101373.22;4977258;28;20025;-87
2023/10/24 08:39:35;;;;;;;0.20;0.20;;;;;;;18.38;57.09;101355.91;4992996;28;20037;-90
2023/10/24 08:42:00;;;;;;;0.10;0.10;;;;;;;18.41;57.07;101360.13;4977416;28;20044;-92
2023/10/24 08:44:26;;;;;;;0.10;0.10;;;;;;;18.32;57.87;101354.56;4976820;28;20034;-92
2023/10/24 08:46:52;;;;;;;0.10;0.10;;;;;;;18.39;57.88;101349.75;4980697;28;20479;-93
2023/10/24 08:49:20;;;;;;;0.55;0.30;;;;;;;18.51;57.87;101338.41;4960948;28;20033;-93
2023/10/24 08:51:46;;;;;;;0.10;0.10;;;;;;;18.72;57.33;101350.94;4972842;28;20432;-88
2023/10/24 08:54:11;;;;;;;0.10;0.10;;;;;;;18.88;57.35;101351.53;4993795;28;20026;-92
2023/10/24 08:56:39;;;;;;;0.28;0.20;;;;;;;18.95;56.48;101344.88;4984359;28;20087;-93
2023/10/24 08:59:05;;;;;;;0.10;0.10;;;;;;;19.04;56.56;101343.38;4990388;28;20025;-89
2023/10/24 09:01:31;;;;;;;0.20;0.20;;;;;;;19.10;56.10;101330.66;4977160;28;20034;-89
2023/10/24 09:03:57;;;;;;;0.10;0.10;;;;;;;19.36;54.44;101346.25;4978982;28;20514;-90
2023/10/24 09:06:23;;;;;;;0.10;0.10;;;;;;;19.29;53.41;101340.63;5015474;28;20034;-91
2023/10/24 09:08:49;;;;;;;0.10;0.10;;;;;;;19.41;53.51;101344.13;4975712;28;20044;-88
2023/10/24 09:11:15;;;;;;;0.10;0.10;;;;;;;19.40;53.07;101332.78;5003317;28;20513;-85
2023/10/24 09:13:40;;;;;;;0.10;0.10;;;;;;;19.38;53.08;101344.38;4982603;28;20056;-89
2023/10/24 09:16:07;;;;;;;0.10;0.10;;;;;;;19.32;52.51;101326.44;4984450;28;20030;-86
2023/10/24 09:18:37;;;;;;;0.10;0.10;;;;;;;19.52;53.00;101340.69;4992322;28;20022;-85
2023/10/24 09:21:04;;;;;;;0.15;0.15;;;;;;;19.57;52.98;101318.44;4984326;28;20034;-89
2023/10/24 09:23:31;;;;;;;0.10;0.10;;;;;;;19.72;52.15;101312.00;4962154;28;20049;-92
2023/10/24 09:26:00;;;;;;;0.10;0.10;;;;;;;19.88;51.92;101311.69;4973610;28;20040;-91
2023/10/24 09:28:26;;;;;;;0.10;0.10;;;;;;;20.01;51.80;101301.06;4968519;28;20041;-86
2023/10/24 09:30:51;;;;;;;0.10;0.10;;;;;;;20.21;51.96;101318.72;4972749;28;20033;-91
2023/10/24 09:33:17;;;;;;;0.20;0.20;;;;;;;20.37;51.22;101301.75;5010972;28;20036;-88
2023/10/24 09:35:42;;;;;;;0.10;0.10;;;;;;;20.47;50.65;101308.81;4985759;28;20196;-86
2023/10/24 09:38:08;;;;;;;0.10;0.10;;;;;;;20.51;50.16;101296.25;5019204;28;20029;-87
2023/10/24 09:40:37;;;;;;;0.10;0.10;;;;;;;20.58;50.16;101298.28;4983088;28;20108;-92
2023/10/24 09:43:11;;;;;;;0.10;0.10;;;;;;;20.52;50.30;101287.41;4961300;28;20038;-87
2023/10/24 09:45:39;;;;;;;0.10;0.10;;;;;;;20.66;50.33;101295.03;4993777;28;20030;-89
2023/10/24 09:48:05;;;;;;;0.10;0.10;;;;;;;20.70;50.39;101271.94;5013637;28;20025;-88
2023/10/24 09:50:30;;;;;;;0.20;0.20;;;;;;;20.78;49.69;101265.13;5007331;28;20032;-86
2023/10/24 09:52:56;;;;;;;0.10;0.10;;;;;;;20.79;49.37;101269.41;5009593;28;20029;-89
2023/10/24 09:55:21;;;;;;;0.10;0.10;;;;;;;20.74;49.19;101262.84;5014267;28;20036;-89
2023/10/24 09:57:47;;;;;;;0.10;0.10;;;;;;;20.75;49.23;101264.53;4987603;28;20364;-86
2023/10/24 10:00:13;;;;;;;0.10;0.10;;;;;;;20.80;49.68;101251.84;4995405;28;20060;-93
2023/10/24 10:02:58;;;;;;;0.20;0.20;;;;;;;20.91;49.29;101259.66;4981633;28;20495;-87
2023/10/24 10:05:24;;;;;;;0.10;0.10;;;;;;;21.13;49.31;101248.19;5011494;28;20430;-86
2023/10/24 10:07:50;;;;;;;0.20;0.20;;;;;;;21.09;48.75;101242.38;5033199;28;20665;-91
2023/10/24 10:10:16;;;;;;;0.10;0.10;;;;;;;21.27;48.39;101226.88;4989211;28;20525;-87
2023/10/24 10:12:42;;;;;;;0.20;0.20;;;;;;;21.43;49.63;101224.63;5030545;28;20534;-92
2023/10/24 10:15:23;;;;;;;0.10;0.10;;;;;;;21.63;48.76;101229.94;4999671;28;20037;-89
2023/10/24 10:17:57;;;;;;;0.10;0.10;;;;;;;21.62;47.30;101210.69;5012572;28;20069;-90
2023/10/24 10:20:56;;;;;;;0.20;0.20;;;;;;;21.73;46.08;101226.41;5030298;28;20018;-89
2023/10/24 10:23:49;;;;;;;0.10;0.10;;;;;;;21.72;46.63;101218.63;5021870;28;20125;-87
2023/10/24 10:26:28;;;;;;;0.10;0.10;;;;;;;21.62;46.28;101208.06;5033122;28;20033;-87
2023/10/24 10:28:59;;;;;;;0.20;0.20;;;;;;;21.73;46.31;101215.06;5020318;28;20029;-91
2023/10/24 10:31:50;;;;;;;0.20;0.20;;;;;;;21.82;46.34;101210.75;5014061;28;20488;-90
2023/10/24 10:34:15;;;;;;;0.20;0.20;;;;;;;21.68;46.06;101177.75;5036258;28;20043;-87
2023/10/24 10:36:52;;;;;;;0.10;0.10;;;;;;;22.04;45.77;101200.88;5014540;28;20041;-88
2023/10/24 10:39:17;;;;;;;0.17;0.17;;;;;;;21.89;45.46;101190.84;4998592;28;20483;-87
2023/10/24 10:41:45;;;;;;;0.10;0.10;;;;;;;22.10;45.92;101194.25;4995642;28;20484;-89
2023/10/24 10:44:43;;;;;;;0.10;0.10;;;;;;;22.30;45.29;101176.66;4996461;28;20033;-93
2023/10/24 10:47:12;;;;;;;0.10;0.10;;;;;;;22.51;44.85;101179.97;4971421;28;20048;-94
2023/10/24 10:49:41;;;;;;;0.10;0.10;;;;;;;22.61;44.34;101185.25;5016731;28;20380;-91
2023/10/24 10:52:11;;;;;;;0.10;0.10;;;;;;;22.78;44.19;101181.09;5027987;28;20116;-91
2023/10/24 10:54:56;;;;;;;0.10;0.10;;;;;;;22.85;43.61;101176.97;5015848;28;20454;-89
2023/10/24 10:57:27;;;;;;;0.13;0.13;;;;;;;22.82;44.17;101162.22;5015440;28;20036;-88
2023/10/24 10:59:58;;;;;;;0.15;0.15;;;;;;;22.94;44.17;101162.09;5007280;28;20490;-86
2023/10/24 11:02:36;;;;;;;0.20;0.20;;;;;;;22.89;43.50;101167.78;5001073;28;20072;-87
2023/10/24 11:05:01;;;;;;;0.20;0.20;;;;;;;22.94;43.60;101159.44;5032793;28;20045;-89
2023/10/24 11:08:04;;;;;;;0.10;0.10;;;;;;;22.99;43.66;101146.66;4998413;28;20028;-88
2023/10/24 11:10:48;;;;;;;;;;;;;;;23.04;44.00;101144.44;4951897;28;20031;-91
2023/10/24 11:13:33;;;;;;;0.10;0.10;;;;;;;22.79;44.54;101136.09;5013594;28;19947;-87
2023/10/24 11:16:00;;;;;;;0.10;0.10;;;;;;;22.93;44.25;101136.69;5014577;28;20025;-92
2023/10/24 11:18:26;;;;;;;0.10;0.10;;;;;;;22.95;43.83;101119.72;4998599;28;20084;-89
2023/10/24 11:20:52;;;;;;;0.10;0.10;;;;;;;23.06;43.86;101122.19;5015249;28;20393;-86
2023/10/24 11:23:18;;;;;;;0.20;0.20;;;;;;;23.11;43.56;101125.25;5013517;28;20101;-84